Terminal Aerodrome Forecast
Issued by NWS

Home | Current Version | Previous Version | Text Only | Print | Product List | Glossary Off
Versions: 1 2 3 4 5 6 7 8 9 10 11 12 13 14 15 16 17 18 19 20 21 22 23 24 25 26

000
FTUS43 KABR 202339
TAFMBG
TAF
KMBG 202339Z 2100/2124 31003KT 1 1/2SM BR SCT002 BKN009 OVC013
     FM210100 VRB03KT 1/2SM FZFG OVC003
     FM211300 VRB03KT P6SM OVC003=

USA.gov is the U.S. government's official web portal to all federal, state and local government web resources and services.